Terminal Aerodrome Forecast
Issued by NWS Sterling, VA

Current Version | Previous Version | Text Only | Print | Product List | Glossary Off
Versions: 1 2 3 4 5 6 7 8 9 10 11 12 13 14 15 16 17 18 19 20 21 22 23 24

753
FTUS41 KLWX 102115 AAA
TAFDCA
TAF AMD
KDCA 102115Z 1021/1118 29014G20KT P6SM SCT050 SCT110
     FM110800 29013G21KT P6SM SCT250
     FM111000 29013G21KT P6SM SCT050=

USA.gov is the U.S. government's official web portal to all federal, state and local government web resources and services.